sensor_id;sensor_type;location;lat;lon;timestamp;noise_LAeq;noise_LA_min;noise_LA_max;noise_LA01;noise_LA95
60031;Laerm;45901;47.600;9.890;2023-06-14T00:01:02;39.49;35.04;50.98;;
60031;Laerm;45901;47.600;9.890;2023-06-14T00:03:32;38.74;35.66;41.38;;
60031;Laerm;45901;47.600;9.890;2023-06-14T00:05:59;38.74;35.66;40.98;;
60031;Laerm;45901;47.600;9.890;2023-06-14T00:08:26;38.75;34.69;41.14;;
60031;Laerm;45901;47.600;9.890;2023-06-14T00:10:53;38.80;34.69;41.11;;
60031;Laerm;45901;47.600;9.890;2023-06-14T00:13:20;38.79;35.66;41.06;;
60031;Laerm;45901;47.600;9.890;2023-06-14T00:15:47;38.92;35.04;48.92;;
60031;Laerm;45901;47.600;9.890;2023-06-14T00:18:16;39.02;35.04;43.19;;
60031;Laerm;45901;47.600;9.890;2023-06-14T00:20:43;38.83;35.04;42.59;;
60031;Laerm;45901;47.600;9.890;2023-06-14T00:23:10;38.79;35.66;41.06;;
60031;Laerm;45901;47.600;9.890;2023-06-14T00:25:37;38.82;35.36;40.98;;
60031;Laerm;45901;47.600;9.890;2023-06-14T00:28:04;38.87;35.66;41.14;;
60031;Laerm;45901;47.600;9.890;2023-06-14T00:30:32;39.10;35.66;50.13;;
60031;Laerm;45901;47.600;9.890;2023-06-14T00:32:59;38.84;35.66;41.14;;
60031;Laerm;45901;47.600;9.890;2023-06-14T00:35:27;38.85;35.94;41.22;;
60031;Laerm;45901;47.600;9.890;2023-06-14T00:37:54;38.86;35.36;41.14;;
60031;Laerm;45901;47.600;9.890;2023-06-14T00:40:22;38.82;35.04;41.30;;
60031;Laerm;45901;47.600;9.890;2023-06-14T00:42:49;38.82;35.66;41.38;;
60031;Laerm;45901;47.600;9.890;2023-06-14T00:45:16;39.01;35.04;47.48;;
60031;Laerm;45901;47.600;9.890;2023-06-14T00:47:45;38.84;35.94;41.22;;
60031;Laerm;45901;47.600;9.890;2023-06-14T00:50:12;38.83;35.66;41.06;;
60031;Laerm;45901;47.600;9.890;2023-06-14T00:52:41;38.84;35.36;41.46;;
60031;Laerm;45901;47.600;9.890;2023-06-14T00:55:09;38.84;35.66;41.30;;
60031;Laerm;45901;47.600;9.890;2023-06-14T00:57:36;38.88;35.94;41.14;;
60031;Laerm;45901;47.600;9.890;2023-06-14T01:00:07;39.78;35.94;50.37;;
60031;Laerm;45901;47.600;9.890;2023-06-14T01:02:36;38.92;35.36;40.98;;
60031;Laerm;45901;47.600;9.890;2023-06-14T01:05:04;38.91;35.66;41.22;;
60031;Laerm;45901;47.600;9.890;2023-06-14T01:07:43;38.95;35.04;41.14;;
60031;Laerm;45901;47.600;9.890;2023-06-14T01:10:32;38.96;35.94;41.06;;
60031;Laerm;45901;47.600;9.890;2023-06-14T01:13:10;38.98;36.20;41.30;;
60031;Laerm;45901;47.600;9.890;2023-06-14T01:15:40;39.08;36.20;48.63;;
60031;Laerm;45901;47.600;9.890;2023-06-14T01:18:08;38.97;36.20;41.38;;
60031;Laerm;45901;47.600;9.890;2023-06-14T01:20:44;39.00;35.94;41.06;;
60031;Laerm;45901;47.600;9.890;2023-06-14T01:23:14;38.97;35.04;41.82;;
60031;Laerm;45901;47.600;9.890;2023-06-14T01:25:42;38.97;36.20;41.06;;
60031;Laerm;45901;47.600;9.890;2023-06-14T01:28:11;38.99;35.94;41.22;;
60031;Laerm;45901;47.600;9.890;2023-06-14T01:30:41;39.25;35.66;50.10;;
60031;Laerm;45901;47.600;9.890;2023-06-14T01:33:12;39.03;35.94;41.38;;
60031;Laerm;45901;47.600;9.890;2023-06-14T01:35:42;39.03;35.94;41.30;;
60031;Laerm;45901;47.600;9.890;2023-06-14T01:38:10;39.04;35.66;41.22;;
60031;Laerm;45901;47.600;9.890;2023-06-14T01:40:39;39.01;35.94;41.75;;
60031;Laerm;45901;47.600;9.890;2023-06-14T01:43:07;39.06;36.20;41.38;;
60031;Laerm;45901;47.600;9.890;2023-06-14T01:45:36;39.39;36.20;50.59;;
60031;Laerm;45901;47.600;9.890;2023-06-14T01:48:05;39.04;35.94;41.61;;
60031;Laerm;45901;47.600;9.890;2023-06-14T01:50:32;39.07;35.36;41.22;;
60031;Laerm;45901;47.600;9.890;2023-06-14T01:52:59;39.07;35.94;41.38;;
60031;Laerm;45901;47.600;9.890;2023-06-14T01:55:27;39.08;36.20;41.14;;
60031;Laerm;45901;47.600;9.890;2023-06-14T01:57:55;39.06;36.20;41.14;;
60031;Laerm;45901;47.600;9.890;2023-06-14T02:00:24;40.18;35.31;52.64;;
60031;Laerm;45901;47.600;9.890;2023-06-14T02:02:52;39.17;36.20;42.35;;
60031;Laerm;45901;47.600;9.890;2023-06-14T02:05:19;39.32;36.20;43.14;;
60031;Laerm;45901;47.600;9.890;2023-06-14T02:07:47;39.28;35.36;43.86;;
60031;Laerm;45901;47.600;9.890;2023-06-14T02:10:14;39.16;36.20;50.88;;
60031;Laerm;45901;47.600;9.890;2023-06-14T02:12:43;39.10;35.36;41.30;;
60031;Laerm;45901;47.600;9.890;2023-06-14T02:15:12;39.19;35.66;50.09;;
60031;Laerm;45901;47.600;9.890;2023-06-14T02:17:42;39.11;35.66;41.14;;
60031;Laerm;45901;47.600;9.890;2023-06-14T02:20:11;39.14;35.94;41.46;;
60031;Laerm;45901;47.600;9.890;2023-06-14T02:22:38;39.12;35.94;41.30;;
60031;Laerm;45901;47.600;9.890;2023-06-14T02:25:06;39.13;35.94;41.38;;
60031;Laerm;45901;47.600;9.890;2023-06-14T02:27:33;39.44;36.20;44.07;;
60031;Laerm;45901;47.600;9.890;2023-06-14T02:30:01;39.33;35.94;48.88;;
60031;Laerm;45901;47.600;9.890;2023-06-14T02:32:30;39.22;36.45;41.89;;
60031;Laerm;45901;47.600;9.890;2023-06-14T02:34:57;39.39;36.45;43.54;;
60031;Laerm;45901;47.600;9.890;2023-06-14T02:37:24;39.54;35.94;43.14;;
60031;Laerm;45901;47.600;9.890;2023-06-14T02:39:51;40.31;35.94;51.47;;
60031;Laerm;45901;47.600;9.890;2023-06-14T02:42:19;41.52;36.91;51.69;;
60031;Laerm;45901;47.600;9.890;2023-06-14T02:44:46;41.12;36.69;55.47;;
60031;Laerm;45901;47.600;9.890;2023-06-14T02:47:16;39.40;36.45;49.52;;
60031;Laerm;45901;47.600;9.890;2023-06-14T02:49:45;40.08;36.45;48.51;;
60031;Laerm;45901;47.600;9.890;2023-06-14T02:52:13;39.56;36.69;48.57;;
60031;Laerm;45901;47.600;9.890;2023-06-14T02:54:40;39.37;36.45;41.96;;
60031;Laerm;45901;47.600;9.890;2023-06-14T02:57:07;39.77;36.69;47.10;;
60031;Laerm;45901;47.600;9.890;2023-06-14T02:59:36;39.56;36.69;42.29;;
60031;Laerm;45901;47.600;9.890;2023-06-14T03:02:05;40.50;36.45;51.68;;
60031;Laerm;45901;47.600;9.890;2023-06-14T03:04:38;39.21;35.94;41.94;;
60031;Laerm;45901;47.600;9.890;2023-06-14T03:07:07;39.36;36.91;41.82;;
60031;Laerm;45901;47.600;9.890;2023-06-14T03:09:36;40.66;36.20;61.58;;
60031;Laerm;45901;47.600;9.890;2023-06-14T03:12:04;39.27;36.45;42.03;;
60031;Laerm;45901;47.600;9.890;2023-06-14T03:14:32;39.27;36.69;42.03;;
60031;Laerm;45901;47.600;9.890;2023-06-14T03:17:00;39.41;36.69;49.55;;
60031;Laerm;45901;47.600;9.890;2023-06-14T03:19:28;39.34;36.45;43.39;;
60031;Laerm;45901;47.600;9.890;2023-06-14T03:21:55;39.23;36.56;43.94;;
60031;Laerm;45901;47.600;9.890;2023-06-14T03:24:24;39.26;36.20;48.49;;
60031;Laerm;45901;47.600;9.890;2023-06-14T03:26:53;39.33;35.94;41.89;;
60031;Laerm;45901;47.600;9.890;2023-06-14T03:29:21;39.28;36.20;44.73;;
60031;Laerm;45901;47.600;9.890;2023-06-14T03:31:59;39.42;36.69;50.36;;
60031;Laerm;45901;47.600;9.890;2023-06-14T03:34:27;39.65;36.20;49.18;;
60031;Laerm;45901;47.600;9.890;2023-06-14T03:36:54;39.69;36.45;48.94;;
60031;Laerm;45901;47.600;9.890;2023-06-14T03:39:21;39.27;35.66;53.62;;
60031;Laerm;45901;47.600;9.890;2023-06-14T03:41:50;39.27;36.20;43.14;;
60031;Laerm;45901;47.600;9.890;2023-06-14T03:44:18;39.75;36.45;44.35;;
60031;Laerm;45901;47.600;9.890;2023-06-14T03:46:45;39.53;36.45;49.82;;
60031;Laerm;45901;47.600;9.890;2023-06-14T03:49:13;40.13;36.91;48.95;;
60031;Laerm;45901;47.600;9.890;2023-06-14T03:51:42;39.93;36.69;44.69;;
60031;Laerm;45901;47.600;9.890;2023-06-14T03:54:09;39.96;36.45;51.82;;
60031;Laerm;45901;47.600;9.890;2023-06-14T03:56:36;39.65;36.69;58.03;;
60031;Laerm;45901;47.600;9.890;2023-06-14T03:59:05;39.45;36.69;43.63;;
60031;Laerm;45901;47.600;9.890;2023-06-14T04:01:32;40.79;35.94;56.89;;
60031;Laerm;45901;47.600;9.890;2023-06-14T04:03:59;39.86;35.94;43.14;;
60031;Laerm;45901;47.600;9.890;2023-06-14T04:06:26;39.34;35.94;43.58;;
60031;Laerm;45901;47.600;9.890;2023-06-14T04:08:59;39.46;36.45;42.82;;
60031;Laerm;45901;47.600;9.890;2023-06-14T04:11:30;40.01;35.66;45.11;;
60031;Laerm;45901;47.600;9.890;2023-06-14T04:13:58;40.44;37.32;44.94;;
60031;Laerm;45901;47.600;9.890;2023-06-14T04:16:26;40.32;36.20;51.80;;
60031;Laerm;45901;47.600;9.890;2023-06-14T04:18:55;39.40;36.45;43.72;;
60031;Laerm;45901;47.600;9.890;2023-06-14T04:21:24;38.98;36.20;41.61;;
60031;Laerm;45901;47.600;9.890;2023-06-14T04:23:52;39.15;36.20;46.66;;
60031;Laerm;45901;47.600;9.890;2023-06-14T04:26:21;39.08;35.66;41.82;;
60031;Laerm;45901;47.600;9.890;2023-06-14T04:28:50;39.08;35.94;41.89;;
60031;Laerm;45901;47.600;9.890;2023-06-14T04:31:17;39.83;36.20;48.49;;
60031;Laerm;45901;47.600;9.890;2023-06-14T04:33:46;39.90;36.20;58.01;;
60031;Laerm;45901;47.600;9.890;2023-06-14T04:36:13;39.02;35.66;41.82;;
60031;Laerm;45901;47.600;9.890;2023-06-14T04:38:43;39.57;36.45;46.10;;
60031;Laerm;45901;47.600;9.890;2023-06-14T04:41:12;39.84;36.20;49.92;;
60031;Laerm;45901;47.600;9.890;2023-06-14T04:43:39;39.96;36.69;49.57;;
60031;Laerm;45901;47.600;9.890;2023-06-14T04:46:08;40.25;36.56;48.21;;
60031;Laerm;45901;47.600;9.890;2023-06-14T04:48:37;39.61;35.94;43.37;;
60031;Laerm;45901;47.600;9.890;2023-06-14T04:51:08;39.53;36.45;44.11;;
60031;Laerm;45901;47.600;9.890;2023-06-14T04:53:36;39.79;36.20;43.37;;
60031;Laerm;45901;47.600;9.890;2023-06-14T04:56:03;39.45;36.45;43.19;;
60031;Laerm;45901;47.600;9.890;2023-06-14T04:58:31;40.41;36.45;47.18;;
60031;Laerm;45901;47.600;9.890;2023-06-14T05:00:58;41.39;36.45;52.67;;
60031;Laerm;45901;47.600;9.890;2023-06-14T05:03:27;39.58;36.20;45.11;;
60031;Laerm;45901;47.600;9.890;2023-06-14T05:05:56;39.60;36.45;44.39;;
60031;Laerm;45901;47.600;9.890;2023-06-14T05:08:25;43.73;36.98;55.01;;
60031;Laerm;45901;47.600;9.890;2023-06-14T05:10:53;41.84;36.69;52.58;;
60031;Laerm;45901;47.600;9.890;2023-06-14T05:13:20;41.25;37.12;50.25;;
60031;Laerm;45901;47.600;9.890;2023-06-14T05:15:49;40.92;36.91;47.70;;
60031;Laerm;45901;47.600;9.890;2023-06-14T05:18:16;41.56;37.88;46.64;;
60031;Laerm;45901;47.600;9.890;2023-06-14T05:20:44;40.30;37.32;46.40;;
60031;Laerm;45901;47.600;9.890;2023-06-14T05:23:12;40.85;37.52;47.28;;
60031;Laerm;45901;47.600;9.890;2023-06-14T05:25:43;40.57;37.12;48.49;;
60031;Laerm;45901;47.600;9.890;2023-06-14T05:28:11;41.38;38.21;46.97;;
60031;Laerm;45901;47.600;9.890;2023-06-14T05:30:39;41.64;38.81;51.91;;
60031;Laerm;45901;47.600;9.890;2023-06-14T05:33:06;41.60;38.52;44.73;;
60031;Laerm;45901;47.600;9.890;2023-06-14T05:35:34;41.92;38.67;44.27;;
60031;Laerm;45901;47.600;9.890;2023-06-14T05:38:01;41.55;37.70;48.99;;
60031;Laerm;45901;47.600;9.890;2023-06-14T05:40:29;41.38;38.52;53.93;;
60031;Laerm;45901;47.600;9.890;2023-06-14T05:42:58;41.86;38.21;56.51;;
60031;Laerm;45901;47.600;9.890;2023-06-14T05:45:25;41.65;38.05;50.40;;
60031;Laerm;45901;47.600;9.890;2023-06-14T05:47:52;41.40;38.05;45.20;;
60031;Laerm;45901;47.600;9.890;2023-06-14T05:50:21;42.27;38.52;52.02;;
60031;Laerm;45901;47.600;9.890;2023-06-14T05:52:49;43.85;38.05;51.67;;
60031;Laerm;45901;47.600;9.890;2023-06-14T05:55:17;40.71;37.35;50.94;;
60031;Laerm;45901;47.600;9.890;2023-06-14T05:57:44;40.77;37.88;48.07;;
60031;Laerm;45901;47.600;9.890;2023-06-14T06:00:15;41.74;38.05;53.37;;
60031;Laerm;45901;47.600;9.890;2023-06-14T06:02:43;41.67;36.91;49.52;;
60031;Laerm;45901;47.600;9.890;2023-06-14T06:05:12;40.86;37.70;47.28;;
60031;Laerm;45901;47.600;9.890;2023-06-14T06:07:41;41.38;38.21;46.18;;
60031;Laerm;45901;47.600;9.890;2023-06-14T06:10:10;41.42;38.32;49.95;;
60031;Laerm;45901;47.600;9.890;2023-06-14T06:12:38;40.64;37.32;47.63;;
60031;Laerm;45901;47.600;9.890;2023-06-14T06:15:06;41.54;37.88;51.72;;
60031;Laerm;45901;47.600;9.890;2023-06-14T06:17:35;47.07;40.45;54.82;;
60031;Laerm;45901;47.600;9.890;2023-06-14T06:20:03;44.13;37.70;57.26;;
60031;Laerm;45901;47.600;9.890;2023-06-14T06:22:31;41.45;38.05;46.57;;
60031;Laerm;45901;47.600;9.890;2023-06-14T06:24:59;40.33;36.20;45.83;;
60031;Laerm;45901;47.600;9.890;2023-06-14T06:27:26;48.89;37.88;55.79;;
60031;Laerm;45901;47.600;9.890;2023-06-14T06:29:53;43.08;38.81;53.93;;
60031;Laerm;45901;47.600;9.890;2023-06-14T06:32:21;41.94;39.08;50.08;;
60031;Laerm;45901;47.600;9.890;2023-06-14T06:34:50;41.66;37.52;50.00;;
60031;Laerm;45901;47.600;9.890;2023-06-14T06:37:18;42.21;37.52;51.75;;
60031;Laerm;45901;47.600;9.890;2023-06-14T06:39:47;42.60;39.46;56.58;;
60031;Laerm;45901;47.600;9.890;2023-06-14T06:42:14;42.08;37.12;51.64;;
60031;Laerm;45901;47.600;9.890;2023-06-14T06:44:42;39.81;36.91;42.82;;
60031;Laerm;45901;47.600;9.890;2023-06-14T06:47:09;40.36;36.45;49.91;;
60031;Laerm;45901;47.600;9.890;2023-06-14T06:49:37;40.70;37.52;52.04;;
60031;Laerm;45901;47.600;9.890;2023-06-14T06:52:07;40.02;36.45;49.98;;
60031;Laerm;45901;47.600;9.890;2023-06-14T06:54:35;40.21;37.52;45.11;;
60031;Laerm;45901;47.600;9.890;2023-06-14T06:57:02;39.85;37.12;45.91;;
60031;Laerm;45901;47.600;9.890;2023-06-14T06:59:30;39.77;36.91;51.34;;
60031;Laerm;45901;47.600;9.890;2023-06-14T07:01:58;41.97;37.32;55.63;;
60031;Laerm;45901;47.600;9.890;2023-06-14T07:04:25;40.53;37.12;44.69;;
60031;Laerm;45901;47.600;9.890;2023-06-14T07:06:53;40.03;36.69;51.64;;
60031;Laerm;45901;47.600;9.890;2023-06-14T07:09:23;40.10;36.69;45.20;;
60031;Laerm;45901;47.600;9.890;2023-06-14T07:11:50;40.86;36.91;55.69;;
60031;Laerm;45901;47.600;9.890;2023-06-14T07:14:18;40.19;35.94;46.69;;
60031;Laerm;45901;47.600;9.890;2023-06-14T07:16:48;42.10;38.05;54.11;;
60031;Laerm;45901;47.600;9.890;2023-06-14T07:19:16;41.24;37.52;45.20;;
60031;Laerm;45901;47.600;9.890;2023-06-14T07:21:43;41.83;37.52;55.22;;
60031;Laerm;45901;47.600;9.890;2023-06-14T07:24:11;41.33;37.32;44.43;;
60031;Laerm;45901;47.600;9.890;2023-06-14T07:26:39;40.05;36.45;46.67;;
60031;Laerm;45901;47.600;9.890;2023-06-14T07:29:07;41.33;36.69;53.97;;
60031;Laerm;45901;47.600;9.890;2023-06-14T07:31:34;41.76;36.69;48.73;;
60031;Laerm;45901;47.600;9.890;2023-06-14T07:34:02;45.80;38.81;56.52;;
60031;Laerm;45901;47.600;9.890;2023-06-14T07:36:29;50.52;40.98;60.03;;
60031;Laerm;45901;47.600;9.890;2023-06-14T07:38:56;42.09;39.08;48.88;;
60031;Laerm;45901;47.600;9.890;2023-06-14T07:41:24;42.10;37.52;51.77;;
60031;Laerm;45901;47.600;9.890;2023-06-14T07:43:53;42.12;37.88;47.46;;
60031;Laerm;45901;47.600;9.890;2023-06-14T07:46:21;41.98;38.52;52.57;;
60031;Laerm;45901;47.600;9.890;2023-06-14T07:48:50;41.18;38.21;49.84;;
60031;Laerm;45901;47.600;9.890;2023-06-14T07:51:18;41.67;38.37;52.24;;
60031;Laerm;45901;47.600;9.890;2023-06-14T07:53:45;41.13;38.21;45.86;;
60031;Laerm;45901;47.600;9.890;2023-06-14T07:56:13;42.16;37.88;50.25;;
60031;Laerm;45901;47.600;9.890;2023-06-14T07:58:41;42.01;37.70;51.82;;
60031;Laerm;45901;47.600;9.890;2023-06-14T08:01:10;42.63;37.88;53.80;;
60031;Laerm;45901;47.600;9.890;2023-06-14T08:03:38;40.49;37.70;46.97;;
60031;Laerm;45901;47.600;9.890;2023-06-14T08:06:06;42.50;37.70;54.16;;
60031;Laerm;45901;47.600;9.890;2023-06-14T08:08:34;41.35;37.32;49.04;;
60031;Laerm;45901;47.600;9.890;2023-06-14T08:11:01;41.39;37.12;47.88;;
60031;Laerm;45901;47.600;9.890;2023-06-14T08:13:29;41.54;38.37;48.57;;
60031;Laerm;45901;47.600;9.890;2023-06-14T08:15:56;42.66;36.98;62.44;;
60031;Laerm;45901;47.600;9.890;2023-06-14T08:18:26;42.05;37.52;50.32;;
60031;Laerm;45901;47.600;9.890;2023-06-14T08:20:54;41.96;37.32;47.70;;
60031;Laerm;45901;47.600;9.890;2023-06-14T08:23:23;41.88;38.37;50.93;;
60031;Laerm;45901;47.600;9.890;2023-06-14T08:25:51;41.70;37.12;48.78;;
60031;Laerm;45901;47.600;9.890;2023-06-14T08:28:18;40.88;37.70;47.74;;
60031;Laerm;45901;47.600;9.890;2023-06-14T08:30:46;43.02;37.88;55.75;;
60031;Laerm;45901;47.600;9.890;2023-06-14T08:33:13;42.13;39.92;48.49;;
60031;Laerm;45901;47.600;9.890;2023-06-14T08:35:43;42.39;39.21;51.12;;
60031;Laerm;45901;47.600;9.890;2023-06-14T08:38:11;42.49;37.52;47.65;;
60031;Laerm;45901;47.600;9.890;2023-06-14T08:40:38;43.40;40.03;53.22;;
60031;Laerm;45901;47.600;9.890;2023-06-14T08:43:07;44.86;40.89;60.20;;
60031;Laerm;45901;47.600;9.890;2023-06-14T08:45:34;46.23;38.47;60.94;;
60031;Laerm;45901;47.600;9.890;2023-06-14T08:48:02;42.91;37.70;60.24;;
60031;Laerm;45901;47.600;9.890;2023-06-14T08:50:30;42.31;38.37;60.98;;
60031;Laerm;45901;47.600;9.890;2023-06-14T08:53:02;41.49;38.21;53.96;;
60031;Laerm;45901;47.600;9.890;2023-06-14T08:55:31;40.98;37.12;46.73;;
60031;Laerm;45901;47.600;9.890;2023-06-14T08:57:59;41.21;37.52;52.51;;
60031;Laerm;45901;47.600;9.890;2023-06-14T09:00:27;41.98;37.88;53.17;;
60031;Laerm;45901;47.600;9.890;2023-06-14T09:02:56;46.07;41.22;56.60;;
60031;Laerm;45901;47.600;9.890;2023-06-14T09:05:25;44.91;39.21;72.28;;
60031;Laerm;45901;47.600;9.890;2023-06-14T09:07:52;44.13;40.80;58.94;;
60031;Laerm;45901;47.600;9.890;2023-06-14T09:10:23;42.79;39.08;58.22;;
60031;Laerm;45901;47.600;9.890;2023-06-14T09:12:51;41.24;37.52;47.77;;
60031;Laerm;45901;47.600;9.890;2023-06-14T09:15:19;40.42;36.45;51.52;;
60031;Laerm;45901;47.600;9.890;2023-06-14T09:17:46;41.33;37.52;46.45;;
60031;Laerm;45901;47.600;9.890;2023-06-14T09:20:14;39.50;35.66;47.10;;
60031;Laerm;45901;47.600;9.890;2023-06-14T09:22:44;43.02;36.69;59.09;;
60031;Laerm;45901;47.600;9.890;2023-06-14T09:25:12;42.84;35.94;58.43;;
60031;Laerm;45901;47.600;9.890;2023-06-14T09:27:42;39.79;35.94;50.68;;
60031;Laerm;45901;47.600;9.890;2023-06-14T09:30:11;40.52;36.91;50.15;;
60031;Laerm;45901;47.600;9.890;2023-06-14T09:32:39;42.15;36.69;52.15;;
60031;Laerm;45901;47.600;9.890;2023-06-14T09:35:08;42.14;39.21;45.14;;
60031;Laerm;45901;47.600;9.890;2023-06-14T09:37:36;42.28;38.37;46.97;;
60031;Laerm;45901;47.600;9.890;2023-06-14T09:40:06;41.80;38.37;47.54;;
60031;Laerm;45901;47.600;9.890;2023-06-14T09:42:34;41.87;36.45;53.47;;
60031;Laerm;45901;47.600;9.890;2023-06-14T09:45:04;40.98;36.56;53.18;;
60031;Laerm;45901;47.600;9.890;2023-06-14T09:47:31;40.31;36.69;45.48;;
60031;Laerm;45901;47.600;9.890;2023-06-14T09:49:59;40.95;36.45;47.91;;
60031;Laerm;45901;47.600;9.890;2023-06-14T09:52:27;41.18;35.94;53.07;;
60031;Laerm;45901;47.600;9.890;2023-06-14T09:54:56;41.21;36.45;47.67;;
60031;Laerm;45901;47.600;9.890;2023-06-14T09:57:27;41.67;38.05;47.74;;
60031;Laerm;45901;47.600;9.890;2023-06-14T10:00:04;42.55;38.21;52.67;;
60031;Laerm;45901;47.600;9.890;2023-06-14T10:02:37;40.83;35.66;51.88;;
60031;Laerm;45901;47.600;9.890;2023-06-14T10:05:07;41.13;37.88;44.76;;
60031;Laerm;45901;47.600;9.890;2023-06-14T10:07:41;39.81;36.45;53.68;;
60031;Laerm;45901;47.600;9.890;2023-06-14T10:10:10;40.36;36.20;54.11;;
60031;Laerm;45901;47.600;9.890;2023-06-14T10:12:38;39.23;35.66;47.70;;
60031;Laerm;45901;47.600;9.890;2023-06-14T10:15:10;40.63;35.94;51.17;;
60031;Laerm;45901;47.600;9.890;2023-06-14T10:17:48;40.96;37.88;47.83;;
60031;Laerm;45901;47.600;9.890;2023-06-14T10:20:25;41.00;36.69;49.66;;
60031;Laerm;45901;47.600;9.890;2023-06-14T10:23:00;46.10;35.36;77.96;;
60031;Laerm;45901;47.600;9.890;2023-06-14T10:25:31;40.12;34.31;52.50;;
60031;Laerm;45901;47.600;9.890;2023-06-14T10:28:16;40.68;36.69;50.33;;
60031;Laerm;45901;47.600;9.890;2023-06-14T10:31:05;40.93;35.94;56.72;;
60031;Laerm;45901;47.600;9.890;2023-06-14T10:33:35;39.89;36.45;52.13;;
60031;Laerm;45901;47.600;9.890;2023-06-14T10:36:26;42.56;36.20;58.56;;
60031;Laerm;45901;47.600;9.890;2023-06-14T10:39:08;42.84;38.05;58.61;;
60031;Laerm;45901;47.600;9.890;2023-06-14T10:41:37;43.32;37.52;58.83;;
60031;Laerm;45901;47.600;9.890;2023-06-14T10:44:49;44.37;40.89;61.21;;
60031;Laerm;45901;47.600;9.890;2023-06-14T10:47:29;44.68;38.21;65.62;;
60031;Laerm;45901;47.600;9.890;2023-06-14T10:50:04;43.71;37.32;60.32;;
60031;Laerm;45901;47.600;9.890;2023-06-14T10:52:34;41.64;36.20;58.00;;
60031;Laerm;45901;47.600;9.890;2023-06-14T10:55:06;45.11;38.05;63.17;;
60031;Laerm;45901;47.600;9.890;2023-06-14T10:57:38;44.06;37.52;64.22;;
60031;Laerm;45901;47.600;9.890;2023-06-14T11:00:08;42.21;37.70;54.40;;
60031;Laerm;45901;47.600;9.890;2023-06-14T11:05:56;42.86;37.70;57.80;;
60031;Laerm;45901;47.600;9.890;2023-06-14T11:09:08;43.11;38.37;55.87;;
60031;Laerm;45901;47.600;9.890;2023-06-14T11:11:42;42.39;38.52;56.92;;
60031;Laerm;45901;47.600;9.890;2023-06-14T11:14:10;43.84;39.46;62.99;;
60031;Laerm;45901;47.600;9.890;2023-06-14T11:16:37;42.92;39.34;54.82;;
60031;Laerm;45901;47.600;9.890;2023-06-14T11:19:06;43.38;39.58;63.20;;
60031;Laerm;45901;47.600;9.890;2023-06-14T11:21:33;42.95;39.08;59.19;;
60031;Laerm;45901;47.600;9.890;2023-06-14T11:24:01;44.73;37.70;62.56;;
60031;Laerm;45901;47.600;9.890;2023-06-14T11:26:29;46.76;38.21;66.38;;
60031;Laerm;45901;47.600;9.890;2023-06-14T11:28:57;42.68;37.52;61.60;;
60031;Laerm;45901;47.600;9.890;2023-06-14T11:31:25;42.31;37.88;52.26;;
60031;Laerm;45901;47.600;9.890;2023-06-14T11:33:54;41.29;37.70;51.56;;
60031;Laerm;45901;47.600;9.890;2023-06-14T11:36:26;42.12;38.52;53.22;;
60031;Laerm;45901;47.600;9.890;2023-06-14T11:38:59;42.19;37.70;54.21;;
60031;Laerm;45901;47.600;9.890;2023-06-14T11:41:34;44.42;40.13;55.21;;
60031;Laerm;45901;47.600;9.890;2023-06-14T11:44:02;42.78;40.23;50.07;;
60031;Laerm;45901;47.600;9.890;2023-06-14T11:46:29;43.47;39.34;61.34;;
60031;Laerm;45901;47.600;9.890;2023-06-14T11:48:57;41.61;37.52;49.72;;
60031;Laerm;45901;47.600;9.890;2023-06-14T11:51:25;42.36;37.32;53.41;;
60031;Laerm;45901;47.600;9.890;2023-06-14T11:53:53;45.74;37.32;66.20;;
60031;Laerm;45901;47.600;9.890;2023-06-14T11:56:20;41.24;37.12;56.65;;
60031;Laerm;45901;47.600;9.890;2023-06-14T11:58:48;42.39;38.37;59.98;;
60031;Laerm;45901;47.600;9.890;2023-06-14T12:01:17;43.74;38.52;59.39;;
60031;Laerm;45901;47.600;9.890;2023-06-14T12:03:48;42.57;37.12;56.45;;
60031;Laerm;45901;47.600;9.890;2023-06-14T12:06:15;40.30;35.66;48.55;;
60031;Laerm;45901;47.600;9.890;2023-06-14T12:08:45;41.91;36.69;54.73;;
60031;Laerm;45901;47.600;9.890;2023-06-14T12:11:15;41.61;36.20;60.10;;
60031;Laerm;45901;47.600;9.890;2023-06-14T12:13:43;40.34;36.20;48.18;;
60031;Laerm;45901;47.600;9.890;2023-06-14T12:16:12;41.27;36.45;47.79;;
60031;Laerm;45901;47.600;9.890;2023-06-14T12:18:40;40.19;36.91;46.97;;
60031;Laerm;45901;47.600;9.890;2023-06-14T12:21:09;39.85;36.20;54.14;;
60031;Laerm;45901;47.600;9.890;2023-06-14T12:23:46;40.57;36.45;44.94;;
60031;Laerm;45901;47.600;9.890;2023-06-14T12:26:14;40.73;36.91;45.17;;
60031;Laerm;45901;47.600;9.890;2023-06-14T12:28:42;40.53;36.20;47.81;;
60031;Laerm;45901;47.600;9.890;2023-06-14T12:31:12;40.41;36.34;51.50;;
60031;Laerm;45901;47.600;9.890;2023-06-14T12:33:40;40.18;37.12;44.07;;
60031;Laerm;45901;47.600;9.890;2023-06-14T12:36:10;41.78;37.32;55.64;;
60031;Laerm;45901;47.600;9.890;2023-06-14T12:38:37;41.07;37.12;48.42;;
60031;Laerm;45901;47.600;9.890;2023-06-14T12:41:06;46.25;40.33;52.34;;
60031;Laerm;45901;47.600;9.890;2023-06-14T12:43:33;44.49;36.45;58.42;;
60031;Laerm;45901;47.600;9.890;2023-06-14T12:46:00;42.04;35.66;68.57;;
60031;Laerm;45901;47.600;9.890;2023-06-14T12:48:27;40.98;36.69;47.84;;
60031;Laerm;45901;47.600;9.890;2023-06-14T12:50:56;40.25;36.91;44.54;;
60031;Laerm;45901;47.600;9.890;2023-06-14T12:53:24;41.22;36.45;54.75;;
60031;Laerm;45901;47.600;9.890;2023-06-14T12:55:51;40.25;36.69;59.13;;
60031;Laerm;45901;47.600;9.890;2023-06-14T12:58:20;40.11;36.20;44.03;;
60031;Laerm;45901;47.600;9.890;2023-06-14T13:00:47;41.13;37.52;51.44;;
60031;Laerm;45901;47.600;9.890;2023-06-14T13:03:14;40.28;36.69;46.18;;
60031;Laerm;45901;47.600;9.890;2023-06-14T13:05:42;40.80;36.69;49.73;;
60031;Laerm;45901;47.600;9.890;2023-06-14T13:08:09;39.54;36.45;44.56;;
60031;Laerm;45901;47.600;9.890;2023-06-14T13:10:36;39.39;36.20;43.86;;
60031;Laerm;45901;47.600;9.890;2023-06-14T13:13:04;40.10;35.59;44.47;;
60031;Laerm;45901;47.600;9.890;2023-06-14T13:15:34;41.19;36.69;54.27;;
60031;Laerm;45901;47.600;9.890;2023-06-14T13:18:01;42.90;38.21;50.34;;
60031;Laerm;45901;47.600;9.890;2023-06-14T13:20:29;40.89;36.45;47.36;;
60031;Laerm;45901;47.600;9.890;2023-06-14T13:22:56;40.07;36.69;46.23;;
60031;Laerm;45901;47.600;9.890;2023-06-14T13:25:23;40.97;36.91;45.94;;
60031;Laerm;45901;47.600;9.890;2023-06-14T13:27:51;40.47;36.45;48.36;;
60031;Laerm;45901;47.600;9.890;2023-06-14T13:30:18;40.37;36.91;48.03;;
60031;Laerm;45901;47.600;9.890;2023-06-14T13:32:47;40.96;36.20;51.47;;
60031;Laerm;45901;47.600;9.890;2023-06-14T13:35:16;40.61;36.69;48.51;;
60031;Laerm;45901;47.600;9.890;2023-06-14T13:37:44;40.91;36.69;47.10;;
60031;Laerm;45901;47.600;9.890;2023-06-14T13:40:12;40.86;36.45;48.26;;
60031;Laerm;45901;47.600;9.890;2023-06-14T13:42:39;41.90;35.94;49.40;;
60031;Laerm;45901;47.600;9.890;2023-06-14T13:45:09;42.01;36.69;51.63;;
60031;Laerm;45901;47.600;9.890;2023-06-14T13:47:37;41.15;37.32;48.60;;
60031;Laerm;45901;47.600;9.890;2023-06-14T13:50:07;41.04;37.12;53.29;;
60031;Laerm;45901;47.600;9.890;2023-06-14T13:52:34;41.66;37.32;52.64;;
60031;Laerm;45901;47.600;9.890;2023-06-14T13:55:02;41.66;35.94;55.25;;
60031;Laerm;45901;47.600;9.890;2023-06-14T13:57:29;41.33;37.32;49.41;;